sensor_id;sensor_type;location;lat;lon;timestamp;pressure;altitude;pressure_sealevel;temperature;humidity
39295;BME280;52361;52.100;5.248;2022-09-29T00:01:27;99914.0;;;7.55;100.0
39295;BME280;52361;52.100;5.248;2022-09-29T00:03:03;99913.0;;;7.54;100.0
39295;BME280;52361;52.100;5.248;2022-09-29T00:04:40;99915.0;;;7.52;100.0
39295;BME280;52361;52.100;5.248;2022-09-29T00:07:53;99913.0;;;7.54;100.0
39295;BME280;52361;52.100;5.248;2022-09-29T00:09:30;99915.0;;;7.53;100.0
39295;BME280;52361;52.100;5.248;2022-09-29T00:11:07;99911.0;;;7.53;100.0
39295;BME280;52361;52.100;5.248;2022-09-29T00:12:44;99911.0;;;7.53;100.0
39295;BME280;52361;52.100;5.248;2022-09-29T00:15:58;99911.0;;;7.55;100.0
39295;BME280;52361;52.100;5.248;2022-09-29T00:17:36;99914.0;;;7.54;100.0
39295;BME280;52361;52.100;5.248;2022-09-29T00:19:12;99912.0;;;7.47;100.0
39295;BME280;52361;52.100;5.248;2022-09-29T00:22:32;99912.0;;;7.48;100.0
39295;BME280;52361;52.100;5.248;2022-09-29T00:24:08;99909.0;;;7.44;100.0
39295;BME280;52361;52.100;5.248;2022-09-29T00:25:44;99906.0;;;7.39;100.0
39295;BME280;52361;52.100;5.248;2022-09-29T00:27:20;99902.0;;;7.37;100.0
39295;BME280;52361;52.100;5.248;2022-09-29T00:30:35;99900.0;;;7.37;100.0
39295;BME280;52361;52.100;5.248;2022-09-29T00:32:12;99898.0;;;7.35;100.0
39295;BME280;52361;52.100;5.248;2022-09-29T00:33:50;99897.0;;;7.27;100.0
39295;BME280;52361;52.100;5.248;2022-09-29T00:37:02;99894.0;;;7.19;100.0
39295;BME280;52361;52.100;5.248;2022-09-29T00:38:40;99899.0;;;7.25;100.0
39295;BME280;52361;52.100;5.248;2022-09-29T00:40:18;99897.0;;;7.14;100.0
39295;BME280;52361;52.100;5.248;2022-09-29T00:43:53;99906.0;;;7.06;100.0
39295;BME280;52361;52.100;5.248;2022-09-29T00:45:30;99900.0;;;7.04;100.0
39295;BME280;52361;52.100;5.248;2022-09-29T00:48:52;99902.0;;;6.96;100.0
39295;BME280;52361;52.100;5.248;2022-09-29T00:50:38;99902.0;;;6.98;100.0
39295;BME280;52361;52.100;5.248;2022-09-29T00:53:57;99905.0;;;6.98;100.0
39295;BME280;52361;52.100;5.248;2022-09-29T00:55:37;99901.0;;;6.96;100.0
39295;BME280;52361;52.100;5.248;2022-09-29T00:57:20;99905.0;;;6.96;100.0
39295;BME280;52361;52.100;5.248;2022-09-29T00:59:02;99902.0;;;6.94;100.0
39295;BME280;52361;52.100;5.248;2022-09-29T01:02:20;99903.0;;;7.0;100.0
39295;BME280;52361;52.100;5.248;2022-09-29T01:03:59;99900.0;;;7.04;100.0
39295;BME280;52361;52.100;5.248;2022-09-29T01:05:44;99905.0;;;7.0;100.0
39295;BME280;52361;52.100;5.248;2022-09-29T01:07:25;99900.0;;;6.94;100.0
39295;BME280;52361;52.100;5.248;2022-09-29T01:10:42;99897.0;;;6.91;100.0
39295;BME280;52361;52.100;5.248;2022-09-29T01:12:21;99895.0;;;6.82;100.0
39295;BME280;52361;52.100;5.248;2022-09-29T01:14:03;99893.0;;;6.8;100.0
39295;BME280;52361;52.100;5.248;2022-09-29T01:15:42;99893.0;;;6.8;100.0
39295;BME280;52361;52.100;5.248;2022-09-29T01:18:56;99899.0;;;6.77;100.0
39295;BME280;52361;52.100;5.248;2022-09-29T01:20:37;99898.0;;;6.74;100.0
39295;BME280;52361;52.100;5.248;2022-09-29T01:22:28;99901.0;;;6.71;100.0
39295;BME280;52361;52.100;5.248;2022-09-29T01:25:36;99905.0;;;6.67;100.0
39295;BME280;52361;52.100;5.248;2022-09-29T01:28:14;99909.0;;;6.6;100.0
39295;BME280;52361;52.100;5.248;2022-09-29T01:31:10;99906.0;;;6.63;100.0
39295;BME280;52361;52.100;5.248;2022-09-29T01:33:30;99908.0;;;6.69;100.0
39295;BME280;52361;52.100;5.248;2022-09-29T01:35:16;99910.0;;;6.78;100.0
39295;BME280;52361;52.100;5.248;2022-09-29T01:37:00;99908.0;;;6.86;100.0
39295;BME280;52361;52.100;5.248;2022-09-29T01:38:53;99908.0;;;6.9;100.0
39295;BME280;52361;52.100;5.248;2022-09-29T01:40:44;99907.0;;;6.93;100.0
39295;BME280;52361;52.100;5.248;2022-09-29T01:44:17;99912.0;;;6.95;100.0
39295;BME280;52361;52.100;5.248;2022-09-29T01:46:02;99911.0;;;6.94;100.0
39295;BME280;52361;52.100;5.248;2022-09-29T01:47:41;99907.0;;;6.93;100.0
39295;BME280;52361;52.100;5.248;2022-09-29T01:49:22;99908.0;;;6.87;100.0
39295;BME280;52361;52.100;5.248;2022-09-29T01:51:05;99907.0;;;6.84;100.0
39295;BME280;52361;52.100;5.248;2022-09-29T01:54:31;99901.0;;;6.76;100.0
39295;BME280;52361;52.100;5.248;2022-09-29T01:56:21;99898.0;;;6.75;100.0
39295;BME280;52361;52.100;5.248;2022-09-29T01:58:04;99903.0;;;6.76;100.0
39295;BME280;52361;52.100;5.248;2022-09-29T01:59:44;99901.0;;;6.7;100.0
39295;BME280;52361;52.100;5.248;2022-09-29T02:03:10;99909.0;;;6.75;100.0
39295;BME280;52361;52.100;5.248;2022-09-29T02:04:53;99910.0;;;6.73;100.0
39295;BME280;52361;52.100;5.248;2022-09-29T02:06:38;99908.0;;;6.77;100.0
39295;BME280;52361;52.100;5.248;2022-09-29T02:08:24;99907.0;;;6.81;100.0
39295;BME280;52361;52.100;5.248;2022-09-29T02:10:09;99910.0;;;6.79;100.0
39295;BME280;52361;52.100;5.248;2022-09-29T02:13:29;99912.0;;;6.82;100.0
39295;BME280;52361;52.100;5.248;2022-09-29T02:15:11;99912.0;;;6.82;100.0
39295;BME280;52361;52.100;5.248;2022-09-29T02:18:40;99915.0;;;6.83;100.0
39295;BME280;52361;52.100;5.248;2022-09-29T02:20:23;99918.0;;;6.8;100.0
39295;BME280;52361;52.100;5.248;2022-09-29T02:23:35;99913.0;;;6.74;100.0
39295;BME280;52361;52.100;5.248;2022-09-29T02:25:15;99909.0;;;6.78;100.0
39295;BME280;52361;52.100;5.248;2022-09-29T02:26:52;99908.0;;;6.87;100.0
39295;BME280;52361;52.100;5.248;2022-09-29T02:30:06;99908.0;;;6.81;100.0
39295;BME280;52361;52.100;5.248;2022-09-29T02:31:44;99906.0;;;6.75;100.0
39295;BME280;52361;52.100;5.248;2022-09-29T02:33:24;99905.0;;;6.72;100.0
39295;BME280;52361;52.100;5.248;2022-09-29T02:35:02;99907.0;;;6.6;100.0
39295;BME280;52361;52.100;5.248;2022-09-29T02:38:37;99899.0;;;6.48;100.0
39295;BME280;52361;52.100;5.248;2022-09-29T02:40:31;99903.0;;;6.43;100.0
39295;BME280;52361;52.100;5.248;2022-09-29T02:42:21;99902.0;;;6.4;100.0
39295;BME280;52361;52.100;5.248;2022-09-29T02:44:28;99902.0;;;6.37;100.0
39295;BME280;52361;52.100;5.248;2022-09-29T02:46:35;99906.0;;;6.42;100.0
39295;BME280;52361;52.100;5.248;2022-09-29T02:48:26;99903.0;;;6.45;100.0
39295;BME280;52361;52.100;5.248;2022-09-29T02:50:21;99902.0;;;6.48;100.0
39295;BME280;52361;52.100;5.248;2022-09-29T02:52:17;99902.0;;;6.48;100.0
39295;BME280;52361;52.100;5.248;2022-09-29T02:54:12;99906.0;;;6.46;100.0
39295;BME280;52361;52.100;5.248;2022-09-29T02:59:30;99906.0;;;6.47;100.0
39295;BME280;52361;52.100;5.248;2022-09-29T03:01:13;99905.0;;;6.5;100.0
39295;BME280;52361;52.100;5.248;2022-09-29T03:02:49;99908.0;;;6.43;100.0
39295;BME280;52361;52.100;5.248;2022-09-29T03:04:26;99910.0;;;6.35;100.0
39295;BME280;52361;52.100;5.248;2022-09-29T03:07:39;99912.0;;;6.36;100.0
39295;BME280;52361;52.100;5.248;2022-09-29T03:09:17;99905.0;;;6.33;100.0
39295;BME280;52361;52.100;5.248;2022-09-29T03:10:53;99908.0;;;6.33;100.0
39295;BME280;52361;52.100;5.248;2022-09-29T03:14:06;99911.0;;;6.33;100.0
39295;BME280;52361;52.100;5.248;2022-09-29T03:15:42;99915.0;;;6.24;100.0
39295;BME280;52361;52.100;5.248;2022-09-29T03:18:57;99916.0;;;6.18;100.0
39295;BME280;52361;52.100;5.248;2022-09-29T03:22:09;99911.0;;;6.19;100.0
39295;BME280;52361;52.100;5.248;2022-09-29T03:23:45;99919.0;;;6.2;100.0
39295;BME280;52361;52.100;5.248;2022-09-29T03:25:23;99913.0;;;6.19;100.0
39295;BME280;52361;52.100;5.248;2022-09-29T03:28:36;99911.0;;;6.1;100.0
39295;BME280;52361;52.100;5.248;2022-09-29T03:30:13;99916.0;;;6.11;100.0
39295;BME280;52361;52.100;5.248;2022-09-29T03:31:50;99911.0;;;6.12;100.0
39295;BME280;52361;52.100;5.248;2022-09-29T03:35:03;99911.0;;;6.09;100.0
39295;BME280;52361;52.100;5.248;2022-09-29T03:36:41;99912.0;;;6.03;100.0
39295;BME280;52361;52.100;5.248;2022-09-29T03:38:17;99912.0;;;6.05;100.0
39295;BME280;52361;52.100;5.248;2022-09-29T03:39:53;99914.0;;;6.1;100.0
39295;BME280;52361;52.100;5.248;2022-09-29T03:43:05;99914.0;;;6.13;100.0
39295;BME280;52361;52.100;5.248;2022-09-29T03:44:41;99916.0;;;6.09;100.0
39295;BME280;52361;52.100;5.248;2022-09-29T03:46:17;99918.0;;;6.09;100.0
39295;BME280;52361;52.100;5.248;2022-09-29T03:49:30;99912.0;;;6.0;100.0
39295;BME280;52361;52.100;5.248;2022-09-29T03:51:06;99915.0;;;5.97;100.0
39295;BME280;52361;52.100;5.248;2022-09-29T03:52:42;99922.0;;;5.95;100.0
39295;BME280;52361;52.100;5.248;2022-09-29T03:55:54;99920.0;;;5.97;100.0
39295;BME280;52361;52.100;5.248;2022-09-29T03:57:30;99922.0;;;6.0;100.0
39295;BME280;52361;52.100;5.248;2022-09-29T03:59:08;99921.0;;;5.99;100.0
39295;BME280;52361;52.100;5.248;2022-09-29T04:00:46;99927.0;;;5.99;100.0
39295;BME280;52361;52.100;5.248;2022-09-29T04:03:59;99928.0;;;6.0;100.0
39295;BME280;52361;52.100;5.248;2022-09-29T04:05:38;99927.0;;;5.99;100.0
39295;BME280;52361;52.100;5.248;2022-09-29T04:07:15;99928.0;;;5.99;100.0
39295;BME280;52361;52.100;5.248;2022-09-29T04:10:27;99928.0;;;6.02;100.0
39295;BME280;52361;52.100;5.248;2022-09-29T04:12:03;99930.0;;;6.02;100.0
39295;BME280;52361;52.100;5.248;2022-09-29T04:13:40;99927.0;;;6.0;100.0
39295;BME280;52361;52.100;5.248;2022-09-29T04:16:52;99932.0;;;6.0;100.0
39295;BME280;52361;52.100;5.248;2022-09-29T04:18:29;99933.0;;;5.94;100.0
39295;BME280;52361;52.100;5.248;2022-09-29T04:20:07;99935.0;;;5.93;100.0
39295;BME280;52361;52.100;5.248;2022-09-29T04:21:45;99940.0;;;5.99;100.0
39295;BME280;52361;52.100;5.248;2022-09-29T04:24:58;99939.0;;;6.02;100.0
39295;BME280;52361;52.100;5.248;2022-09-29T04:26:35;99940.0;;;6.01;100.0
39295;BME280;52361;52.100;5.248;2022-09-29T04:28:11;99945.0;;;6.11;100.0
39295;BME280;52361;52.100;5.248;2022-09-29T04:31:24;99941.0;;;6.1;100.0
39295;BME280;52361;52.100;5.248;2022-09-29T04:33:01;99938.0;;;6.07;100.0
39295;BME280;52361;52.100;5.248;2022-09-29T04:34:37;99945.0;;;6.05;100.0
39295;BME280;52361;52.100;5.248;2022-09-29T04:37:53;99950.0;;;6.06;100.0
39295;BME280;52361;52.100;5.248;2022-09-29T04:39:30;99945.0;;;6.04;100.0
39295;BME280;52361;52.100;5.248;2022-09-29T04:41:06;99955.0;;;5.94;100.0
39295;BME280;52361;52.100;5.248;2022-09-29T04:42:43;99959.0;;;5.84;100.0
39295;BME280;52361;52.100;5.248;2022-09-29T04:46:02;99960.0;;;5.76;100.0
39295;BME280;52361;52.100;5.248;2022-09-29T04:47:40;99961.0;;;5.73;100.0
39295;BME280;52361;52.100;5.248;2022-09-29T04:49:16;99964.0;;;5.73;100.0
39295;BME280;52361;52.100;5.248;2022-09-29T04:52:29;99962.0;;;5.76;100.0
39295;BME280;52361;52.100;5.248;2022-09-29T04:54:05;99960.0;;;5.76;100.0
39295;BME280;52361;52.100;5.248;2022-09-29T04:55:42;99956.0;;;5.77;100.0
39295;BME280;52361;52.100;5.248;2022-09-29T04:57:18;99964.0;;;5.79;100.0
39295;BME280;52361;52.100;5.248;2022-09-29T05:00:31;99970.0;;;5.78;100.0
39295;BME280;52361;52.100;5.248;2022-09-29T05:02:08;99963.0;;;5.77;100.0
39295;BME280;52361;52.100;5.248;2022-09-29T05:03:44;99967.0;;;5.79;100.0
39295;BME280;52361;52.100;5.248;2022-09-29T05:06:56;99968.0;;;5.81;100.0
39295;BME280;52361;52.100;5.248;2022-09-29T05:08:33;99967.0;;;5.83;100.0
39295;BME280;52361;52.100;5.248;2022-09-29T05:10:09;99966.0;;;5.82;100.0
39295;BME280;52361;52.100;5.248;2022-09-29T05:13:21;99971.0;;;5.76;100.0
39295;BME280;52361;52.100;5.248;2022-09-29T05:14:58;99969.0;;;5.71;100.0
39295;BME280;52361;52.100;5.248;2022-09-29T05:16:34;99975.0;;;5.77;100.0
39295;BME280;52361;52.100;5.248;2022-09-29T05:18:10;99978.0;;;5.91;100.0
39295;BME280;52361;52.100;5.248;2022-09-29T05:21:23;99977.0;;;5.82;100.0
39295;BME280;52361;52.100;5.248;2022-09-29T05:23:00;99980.0;;;5.81;100.0
39295;BME280;52361;52.100;5.248;2022-09-29T05:24:36;99988.0;;;5.85;100.0
39295;BME280;52361;52.100;5.248;2022-09-29T05:27:49;99988.0;;;5.83;100.0
39295;BME280;52361;52.100;5.248;2022-09-29T05:29:26;99991.0;;;5.86;100.0
39295;BME280;52361;52.100;5.248;2022-09-29T05:31:02;99993.0;;;5.84;100.0
39295;BME280;52361;52.100;5.248;2022-09-29T05:34:18;99993.0;;;5.87;100.0
39295;BME280;52361;52.100;5.248;2022-09-29T05:35:55;100000.0;;;5.82;100.0
39295;BME280;52361;52.100;5.248;2022-09-29T05:37:32;99996.0;;;5.91;100.0
39295;BME280;52361;52.100;5.248;2022-09-29T05:39:08;99999.0;;;6.03;100.0
39295;BME280;52361;52.100;5.248;2022-09-29T05:42:23;100001.0;;;6.08;100.0
39295;BME280;52361;52.100;5.248;2022-09-29T05:44:01;100002.0;;;6.15;100.0
39295;BME280;52361;52.100;5.248;2022-09-29T05:45:38;100005.0;;;6.21;100.0
39295;BME280;52361;52.100;5.248;2022-09-29T05:48:50;100003.0;;;6.19;100.0
39295;BME280;52361;52.100;5.248;2022-09-29T05:50:27;100003.0;;;6.13;100.0
39295;BME280;52361;52.100;5.248;2022-09-29T05:52:03;100002.0;;;6.08;100.0
39295;BME280;52361;52.100;5.248;2022-09-29T05:53:40;100006.0;;;6.12;100.0
39295;BME280;52361;52.100;5.248;2022-09-29T05:56:55;100007.0;;;6.15;100.0
39295;BME280;52361;52.100;5.248;2022-09-29T05:58:31;100006.0;;;6.28;100.0
39295;BME280;52361;52.100;5.248;2022-09-29T06:00:09;100013.0;;;6.35;100.0
39295;BME280;52361;52.100;5.248;2022-09-29T06:03:21;100014.0;;;6.19;100.0
39295;BME280;52361;52.100;5.248;2022-09-29T06:04:58;100017.0;;;6.1;100.0
39295;BME280;52361;52.100;5.248;2022-09-29T06:06:35;100014.0;;;6.04;100.0
39295;BME280;52361;52.100;5.248;2022-09-29T06:09:47;100017.0;;;5.97;100.0
39295;BME280;52361;52.100;5.248;2022-09-29T06:11:25;100015.0;;;5.94;100.0
39295;BME280;52361;52.100;5.248;2022-09-29T06:13:02;100016.0;;;5.93;100.0
39295;BME280;52361;52.100;5.248;2022-09-29T06:14:38;100020.0;;;6.0;100.0
39295;BME280;52361;52.100;5.248;2022-09-29T06:17:54;100022.0;;;6.04;100.0
39295;BME280;52361;52.100;5.248;2022-09-29T06:21:09;100019.0;;;6.12;100.0
39295;BME280;52361;52.100;5.248;2022-09-29T06:24:23;100022.0;;;6.18;100.0
39295;BME280;52361;52.100;5.248;2022-09-29T06:26:03;100030.0;;;6.24;100.0
39295;BME280;52361;52.100;5.248;2022-09-29T06:27:42;100026.0;;;6.24;100.0
39295;BME280;52361;52.100;5.248;2022-09-29T06:29:19;100026.0;;;6.25;100.0
39295;BME280;52361;52.100;5.248;2022-09-29T06:32:35;100024.0;;;6.33;100.0
39295;BME280;52361;52.100;5.248;2022-09-29T06:34:11;100025.0;;;6.3;100.0
39295;BME280;52361;52.100;5.248;2022-09-29T06:38:40;100028.0;;;6.26;100.0
39295;BME280;52361;52.100;5.248;2022-09-29T06:40:17;100032.0;;;6.29;100.0
39295;BME280;52361;52.100;5.248;2022-09-29T06:41:56;100035.0;;;6.3;100.0
39295;BME280;52361;52.100;5.248;2022-09-29T06:45:09;100034.0;;;6.38;100.0
39295;BME280;52361;52.100;5.248;2022-09-29T06:46:45;100032.0;;;6.47;100.0
39295;BME280;52361;52.100;5.248;2022-09-29T06:48:22;100041.0;;;6.6;100.0
39295;BME280;52361;52.100;5.248;2022-09-29T06:53:13;100044.0;;;6.8;100.0
39295;BME280;52361;52.100;5.248;2022-09-29T06:59:37;100057.0;;;7.05;100.0
39295;BME280;52361;52.100;5.248;2022-09-29T07:01:13;100055.0;;;7.22;100.0
39295;BME280;52361;52.100;5.248;2022-09-29T07:02:50;100061.0;;;7.34;100.0
39295;BME280;52361;52.100;5.248;2022-09-29T07:06:04;100066.0;;;7.6;100.0
39295;BME280;52361;52.100;5.248;2022-09-29T07:09:17;100065.0;;;7.77;100.0
39295;BME280;52361;52.100;5.248;2022-09-29T07:15:42;100068.0;;;8.08;100.0
39295;BME280;52361;52.100;5.248;2022-09-29T07:18:55;100069.0;;;8.1;100.0
39295;BME280;52361;52.100;5.248;2022-09-29T07:20:31;100075.0;;;8.14;100.0
39295;BME280;52361;52.100;5.248;2022-09-29T07:22:08;100073.0;;;8.23;100.0
39295;BME280;52361;52.100;5.248;2022-09-29T07:26:59;100083.0;;;8.55;100.0
39295;BME280;52361;52.100;5.248;2022-09-29T07:33:27;100086.0;;;8.63;100.0
39295;BME280;52361;52.100;5.248;2022-09-29T07:36:43;100090.0;;;8.84;100.0
39295;BME280;52361;52.100;5.248;2022-09-29T07:38:19;100089.0;;;8.86;100.0
39295;BME280;52361;52.100;5.248;2022-09-29T07:41:31;100094.0;;;8.84;100.0
39295;BME280;52361;52.100;5.248;2022-09-29T07:43:07;100095.0;;;8.98;100.0
39295;BME280;52361;52.100;5.248;2022-09-29T07:44:43;100095.0;;;9.03;100.0
39295;BME280;52361;52.100;5.248;2022-09-29T07:47:56;100101.0;;;8.96;100.0
39295;BME280;52361;52.100;5.248;2022-09-29T07:49:32;100103.0;;;9.06;100.0
39295;BME280;52361;52.100;5.248;2022-09-29T07:51:10;100101.0;;;9.11;100.0
39295;BME280;52361;52.100;5.248;2022-09-29T07:54:25;100112.0;;;9.11;100.0
39295;BME280;52361;52.100;5.248;2022-09-29T07:56:02;100116.0;;;9.14;100.0
39295;BME280;52361;52.100;5.248;2022-09-29T07:57:39;100116.0;;;9.3;100.0
39295;BME280;52361;52.100;5.248;2022-09-29T07:59:15;100119.0;;;9.35;100.0
39295;BME280;52361;52.100;5.248;2022-09-29T08:02:29;100122.0;;;9.4;100.0
39295;BME280;52361;52.100;5.248;2022-09-29T08:05:41;100126.0;;;9.55;100.0
39295;BME280;52361;52.100;5.248;2022-09-29T08:08:54;100122.0;;;9.57;100.0
39295;BME280;52361;52.100;5.248;2022-09-29T08:10:32;100128.0;;;9.56;100.0
39295;BME280;52361;52.100;5.248;2022-09-29T08:12:11;100133.0;;;9.56;100.0
39295;BME280;52361;52.100;5.248;2022-09-29T08:15:27;100135.0;;;9.64;100.0
39295;BME280;52361;52.100;5.248;2022-09-29T08:17:03;100136.0;;;9.64;100.0
39295;BME280;52361;52.100;5.248;2022-09-29T08:18:40;100145.0;;;9.86;100.0
39295;BME280;52361;52.100;5.248;2022-09-29T08:23:34;100148.0;;;10.03;100.0
39295;BME280;52361;52.100;5.248;2022-09-29T08:25:11;100147.0;;;10.06;100.0
39295;BME280;52361;52.100;5.248;2022-09-29T08:26:47;100153.0;;;10.1;100.0
39295;BME280;52361;52.100;5.248;2022-09-29T08:29:59;100153.0;;;10.09;100.0
39295;BME280;52361;52.100;5.248;2022-09-29T08:31:37;100156.0;;;10.17;100.0
39295;BME280;52361;52.100;5.248;2022-09-29T08:33:14;100159.0;;;10.29;100.0
39295;BME280;52361;52.100;5.248;2022-09-29T08:34:50;100157.0;;;10.01;100.0
39295;BME280;52361;52.100;5.248;2022-09-29T08:38:04;100161.0;;;9.99;100.0
39295;BME280;52361;52.100;5.248;2022-09-29T08:39:40;100159.0;;;10.08;100.0
39295;BME280;52361;52.100;5.248;2022-09-29T08:41:27;100169.0;;;10.02;100.0
39295;BME280;52361;52.100;5.248;2022-09-29T08:43:16;100172.0;;;10.22;100.0
39295;BME280;52361;52.100;5.248;2022-09-29T08:46:43;100170.0;;;10.4;100.0
39295;BME280;52361;52.100;5.248;2022-09-29T08:48:25;100173.0;;;10.51;100.0
39295;BME280;52361;52.100;5.248;2022-09-29T08:50:08;100173.0;;;10.35;100.0
39295;BME280;52361;52.100;5.248;2022-09-29T08:51:49;100180.0;;;10.35;100.0
39295;BME280;52361;52.100;5.248;2022-09-29T08:57:01;100187.0;;;10.36;100.0
39295;BME280;52361;52.100;5.248;2022-09-29T08:58:39;100188.0;;;10.62;100.0
39295;BME280;52361;52.100;5.248;2022-09-29T09:00:26;100191.0;;;10.72;100.0
39295;BME280;52361;52.100;5.248;2022-09-29T09:02:23;100197.0;;;10.95;100.0
39295;BME280;52361;52.100;5.248;2022-09-29T09:07:16;100193.0;;;10.97;100.0
39295;BME280;52361;52.100;5.248;2022-09-29T09:09:08;100196.0;;;11.0;100.0
39295;BME280;52361;52.100;5.248;2022-09-29T09:10:55;100198.0;;;11.19;100.0
39295;BME280;52361;52.100;5.248;2022-09-29T09:12:48;100199.0;;;11.2;100.0
39295;BME280;52361;52.100;5.248;2022-09-29T09:14:48;100200.0;;;11.22;100.0
39295;BME280;52361;52.100;5.248;2022-09-29T09:18:37;100203.0;;;11.07;100.0
39295;BME280;52361;52.100;5.248;2022-09-29T09:20:29;100198.0;;;11.2;100.0
39295;BME280;52361;52.100;5.248;2022-09-29T09:22:18;100205.0;;;11.13;100.0
39295;BME280;52361;52.100;5.248;2022-09-29T09:23:57;100205.0;;;11.06;100.0
39295;BME280;52361;52.100;5.248;2022-09-29T09:25:46;100206.0;;;11.15;100.0
39295;BME280;52361;52.100;5.248;2022-09-29T09:27:27;100200.0;;;11.5;100.0
39295;BME280;52361;52.100;5.248;2022-09-29T09:30:54;100201.0;;;11.53;100.0
39295;BME280;52361;52.100;5.248;2022-09-29T09:32:38;100200.0;;;11.65;100.0
39295;BME280;52361;52.100;5.248;2022-09-29T09:34:19;100203.0;;;11.71;100.0
39295;BME280;52361;52.100;5.248;2022-09-29T09:36:05;100202.0;;;11.96;100.0
39295;BME280;52361;52.100;5.248;2022-09-29T09:37:44;100198.0;;;11.83;100.0
39295;BME280;52361;52.100;5.248;2022-09-29T09:41:06;100205.0;;;11.89;100.0
39295;BME280;52361;52.100;5.248;2022-09-29T09:42:47;100209.0;;;12.24;100.0
39295;BME280;52361;52.100;5.248;2022-09-29T09:44:32;100211.0;;;12.5;100.0
39295;BME280;52361;52.100;5.248;2022-09-29T09:46:15;100210.0;;;12.65;100.0
39295;BME280;52361;52.100;5.248;2022-09-29T09:49:38;100212.0;;;12.34;100.0
39295;BME280;52361;52.100;5.248;2022-09-29T09:51:29;100211.0;;;12.17;100.0
39295;BME280;52361;52.100;5.248;2022-09-29T09:53:25;100213.0;;;12.36;100.0
39295;BME280;52361;52.100;5.248;2022-09-29T09:55:12;100216.0;;;12.52;100.0
39295;BME280;52361;52.100;5.248;2022-09-29T09:57:17;100211.0;;;12.68;100.0
39295;BME280;52361;52.100;5.248;2022-09-29T09:59:12;100213.0;;;12.78;100.0
39295;BME280;52361;52.100;5.248;2022-09-29T10:01:07;100213.0;;;12.67;100.0
39295;BME280;52361;52.100;5.248;2022-09-29T10:02:45;100214.0;;;12.68;100.0
39295;BME280;52361;52.100;5.248;2022-09-29T10:05:59;100212.0;;;12.91;100.0
39295;BME280;52361;52.100;5.248;2022-09-29T10:07:35;100212.0;;;13.12;100.0
39295;BME280;52361;52.100;5.248;2022-09-29T10:09:13;100212.0;;;13.16;100.0
39295;BME280;52361;52.100;5.248;2022-09-29T10:12:28;100215.0;;;13.34;100.0
39295;BME280;52361;52.100;5.248;2022-09-29T10:14:10;100212.0;;;13.45;100.0
39295;BME280;52361;52.100;5.248;2022-09-29T10:15:53;100216.0;;;13.43;100.0
39295;BME280;52361;52.100;5.248;2022-09-29T10:17:36;100215.0;;;12.97;100.0
39295;BME280;52361;52.100;5.248;2022-09-29T10:20:57;100215.0;;;13.14;100.0
39295;BME280;52361;52.100;5.248;2022-09-29T10:22:34;100219.0;;;13.14;100.0
39295;BME280;52361;52.100;5.248;2022-09-29T10:24:21;100221.0;;;13.47;100.0
39295;BME280;52361;52.100;5.248;2022-09-29T10:26:08;100225.0;;;13.54;100.0
39295;BME280;52361;52.100;5.248;2022-09-29T10:27:50;100221.0;;;13.52;100.0
39295;BME280;52361;52.100;5.248;2022-09-29T10:31:17;100221.0;;;13.87;100.0
39295;BME280;52361;52.100;5.248;2022-09-29T10:33:12;100222.0;;;14.05;100.0
39295;BME280;52361;52.100;5.248;2022-09-29T10:35:05;100223.0;;;13.99;100.0
39295;BME280;52361;52.100;5.248;2022-09-29T10:36:49;100223.0;;;14.09;100.0
39295;BME280;52361;52.100;5.248;2022-09-29T10:38:27;100223.0;;;14.17;100.0
39295;BME280;52361;52.100;5.248;2022-09-29T10:41:53;100228.0;;;14.41;99.0
39295;BME280;52361;52.100;5.248;2022-09-29T10:43:34;100227.0;;;14.46;94.96
39295;BME280;52361;52.100;5.248;2022-09-29T10:45:15;100221.0;;;14.25;93.49
39295;BME280;52361;52.100;5.248;2022-09-29T10:46:53;100227.0;;;14.45;94.28
39295;BME280;52361;52.100;5.248;2022-09-29T10:50:12;100226.0;;;14.58;96.54
39295;BME280;52361;52.100;5.248;2022-09-29T10:51:54;100222.0;;;14.72;96.79
39295;BME280;52361;52.100;5.248;2022-09-29T10:53:34;100225.0;;;14.57;94.0
39295;BME280;52361;52.100;5.248;2022-09-29T10:55:16;100225.0;;;14.53;92.63
39295;BME280;52361;52.100;5.248;2022-09-29T10:58:35;100226.0;;;14.59;90.95
39295;BME280;52361;52.100;5.248;2022-09-29T11:00:33;100226.0;;;14.97;91.5
39295;BME280;52361;52.100;5.248;2022-09-29T11:02:15;100228.0;;;15.11;92.46
39295;BME280;52361;52.100;5.248;2022-09-29T11:04:04;100228.0;;;14.99;92.35
39295;BME280;52361;52.100;5.248;2022-09-29T11:05:51;100224.0;;;14.99;91.04
39295;BME280;52361;52.100;5.248;2022-09-29T11:07:28;100224.0;;;15.35;90.59
39295;BME280;52361;52.100;5.248;2022-09-29T11:11:04;100224.0;;;15.41;91.39
39295;BME280;52361;52.100;5.248;2022-09-29T11:12:41;100226.0;;;15.54;89.59
39295;BME280;52361;52.100;5.248;2022-09-29T11:14:24;100223.0;;;15.82;88.29
39295;BME280;52361;52.100;5.248;2022-09-29T11:16:03;100227.0;;;15.98;84.71
39295;BME280;52361;52.100;5.248;2022-09-29T11:19:27;100230.0;;;15.62;84.59
39295;BME280;52361;52.100;5.248;2022-09-29T11:21:20;100225.0;;;15.66;84.97
39295;BME280;52361;52.100;5.248;2022-09-29T11:23:24;100225.0;;;15.83;83.95
39295;BME280;52361;52.100;5.248;2022-09-29T11:25:19;100224.0;;;15.87;86.47
39295;BME280;52361;52.100;5.248;2022-09-29T11:27:05;100227.0;;;15.88;82.28
39295;BME280;52361;52.100;5.248;2022-09-29T11:29:01;100232.0;;;16.15;82.61
39295;BME280;52361;52.100;5.248;2022-09-29T11:30:56;100230.0;;;16.09;83.62
39295;BME280;52361;52.100;5.248;2022-09-29T11:32:50;100231.0;;;16.18;81.62
39295;BME280;52361;52.100;5.248;2022-09-29T11:36:53;100230.0;;;15.99;77.12
39295;BME280;52361;52.100;5.248;2022-09-29T11:40:29;100228.0;;;15.87;77.0
39295;BME280;52361;52.100;5.248;2022-09-29T11:42:26;100228.0;;;15.87;78.83
39295;BME280;52361;52.100;5.248;2022-09-29T11:44:19;100230.0;;;15.96;78.37
39295;BME280;52361;52.100;5.248;2022-09-29T11:46:13;100230.0;;;16.16;76.08
39295;BME280;52361;52.100;5.248;2022-09-29T11:48:11;100240.0;;;16.5;77.66
39295;BME280;52361;52.100;5.248;2022-09-29T11:51:37;100243.0;;;16.68;75.31
39295;BME280;52361;52.100;5.248;2022-09-29T11:53:43;100237.0;;;16.2;72.37
39295;BME280;52361;52.100;5.248;2022-09-29T11:57:34;100236.0;;;16.29;71.3
39295;BME280;52361;52.100;5.248;2022-09-29T12:01:27;100243.0;;;16.71;75.2
39295;BME280;52361;52.100;5.248;2022-09-29T12:03:17;100246.0;;;16.86;73.05
39295;BME280;52361;52.100;5.248;2022-09-29T12:05:02;100253.0;;;17.02;72.44
39295;BME280;52361;52.100;5.248;2022-09-29T12:06:52;100251.0;;;17.09;73.7